sensor_id;sensor_type;location;lat;lon;timestamp;pressure;altitude;pressure_sealevel;temperature;humidity
2192;BME280;1102;49.718;11.902;2023-02-20T00:01:17;97058.28;;;5.25;100.00
2192;BME280;1102;49.718;11.902;2023-02-20T00:03:44;97039.47;;;5.18;100.00
2192;BME280;1102;49.718;11.902;2023-02-20T00:06:11;97026.91;;;5.15;100.00
2192;BME280;1102;49.718;11.902;2023-02-20T00:08:39;97039.72;;;5.22;100.00
2192;BME280;1102;49.718;11.902;2023-02-20T00:11:06;97007.34;;;5.02;100.00
2192;BME280;1102;49.718;11.902;2023-02-20T00:13:33;97041.78;;;5.25;100.00
2192;BME280;1102;49.718;11.902;2023-02-20T00:16:00;97014.66;;;5.05;100.00
2192;BME280;1102;49.718;11.902;2023-02-20T00:18:26;97036.88;;;5.13;100.00
2192;BME280;1102;49.718;11.902;2023-02-20T00:20:53;97059.06;;;5.26;100.00
2192;BME280;1102;49.718;11.902;2023-02-20T00:23:20;97034.69;;;4.86;100.00
2192;BME280;1102;49.718;11.902;2023-02-20T00:25:46;97043.78;;;4.99;100.00
2192;BME280;1102;49.718;11.902;2023-02-20T00:28:13;97026.78;;;4.96;100.00
2192;BME280;1102;49.718;11.902;2023-02-20T00:30:40;97046.34;;;5.09;100.00
2192;BME280;1102;49.718;11.902;2023-02-20T00:33:06;97068.28;;;5.23;100.00
2192;BME280;1102;49.718;11.902;2023-02-20T00:35:33;97021.03;;;4.94;100.00
2192;BME280;1102;49.718;11.902;2023-02-20T00:38:00;97035.66;;;5.00;100.00
2192;BME280;1102;49.718;11.902;2023-02-20T00:40:27;97065.38;;;5.20;100.00
2192;BME280;1102;49.718;11.902;2023-02-20T00:42:53;97050.78;;;5.14;100.00
2192;BME280;1102;49.718;11.902;2023-02-20T00:45:20;97058.34;;;5.15;100.00
2192;BME280;1102;49.718;11.902;2023-02-20T00:47:47;97060.16;;;5.20;100.00
2192;BME280;1102;49.718;11.902;2023-02-20T00:50:15;97039.00;;;5.06;100.00
2192;BME280;1102;49.718;11.902;2023-02-20T00:52:43;97042.69;;;5.05;100.00
2192;BME280;1102;49.718;11.902;2023-02-20T00:55:10;97047.91;;;5.10;100.00
2192;BME280;1102;49.718;11.902;2023-02-20T00:57:37;97041.69;;;5.01;100.00
2192;BME280;1102;49.718;11.902;2023-02-20T01:00:05;97058.41;;;5.10;100.00
2192;BME280;1102;49.718;11.902;2023-02-20T01:02:32;97061.81;;;5.11;100.00
2192;BME280;1102;49.718;11.902;2023-02-20T01:04:59;97032.81;;;4.97;100.00
2192;BME280;1102;49.718;11.902;2023-02-20T01:07:27;96974.94;;;4.54;100.00
2192;BME280;1102;49.718;11.902;2023-02-20T01:09:54;97025.56;;;4.84;100.00
2192;BME280;1102;49.718;11.902;2023-02-20T01:12:20;97023.00;;;4.73;100.00
2192;BME280;1102;49.718;11.902;2023-02-20T01:14:47;97048.03;;;4.90;100.00
2192;BME280;1102;49.718;11.902;2023-02-20T01:17:14;97057.47;;;4.91;100.00
2192;BME280;1102;49.718;11.902;2023-02-20T01:19:40;97032.13;;;4.81;100.00
2192;BME280;1102;49.718;11.902;2023-02-20T01:22:08;97027.69;;;4.77;100.00
2192;BME280;1102;49.718;11.902;2023-02-20T01:24:35;97063.19;;;4.98;100.00
2192;BME280;1102;49.718;11.902;2023-02-20T01:27:01;97015.94;;;4.69;100.00
2192;BME280;1102;49.718;11.902;2023-02-20T01:29:28;97012.78;;;4.67;100.00
2192;BME280;1102;49.718;11.902;2023-02-20T01:31:57;97056.13;;;4.98;100.00
2192;BME280;1102;49.718;11.902;2023-02-20T01:34:24;97030.81;;;4.79;100.00
2192;BME280;1102;49.718;11.902;2023-02-20T01:36:52;97061.13;;;4.95;100.00
2192;BME280;1102;49.718;11.902;2023-02-20T01:39:23;96984.84;;;4.52;100.00
2192;BME280;1102;49.718;11.902;2023-02-20T01:41:55;97061.31;;;5.03;100.00
2192;BME280;1102;49.718;11.902;2023-02-20T01:44:27;97030.53;;;4.80;100.00
2192;BME280;1102;49.718;11.902;2023-02-20T01:46:56;97026.34;;;4.84;100.00
2192;BME280;1102;49.718;11.902;2023-02-20T01:49:29;97033.94;;;4.81;100.00
2192;BME280;1102;49.718;11.902;2023-02-20T01:52:06;97057.94;;;4.98;100.00
2192;BME280;1102;49.718;11.902;2023-02-20T01:54:35;97062.41;;;4.97;100.00
2192;BME280;1102;49.718;11.902;2023-02-20T01:57:07;97044.66;;;4.84;100.00
2192;BME280;1102;49.718;11.902;2023-02-20T01:59:38;97047.28;;;4.84;100.00
2192;BME280;1102;49.718;11.902;2023-02-20T02:02:07;97036.81;;;4.84;100.00
2192;BME280;1102;49.718;11.902;2023-02-20T02:04:35;97061.03;;;5.05;100.00
2192;BME280;1102;49.718;11.902;2023-02-20T02:07:02;97047.97;;;5.00;100.00
2192;BME280;1102;49.718;11.902;2023-02-20T02:12:14;97039.88;;;4.96;100.00
2192;BME280;1102;49.718;11.902;2023-02-20T02:14:40;97027.13;;;4.80;100.00
2192;BME280;1102;49.718;11.902;2023-02-20T02:17:36;97037.53;;;4.95;100.00
2192;BME280;1102;49.718;11.902;2023-02-20T02:36:40;97014.13;;;4.69;100.00
2192;BME280;1102;49.718;11.902;2023-02-20T02:39:37;97021.47;;;4.67;100.00
2192;BME280;1102;49.718;11.902;2023-02-20T02:45:22;97025.84;;;4.77;100.00
2192;BME280;1102;49.718;11.902;2023-02-20T02:47:56;97005.75;;;4.67;100.00
2192;BME280;1102;49.718;11.902;2023-02-20T02:50:36;97014.03;;;4.80;100.00
2192;BME280;1102;49.718;11.902;2023-02-20T02:53:08;97002.63;;;4.60;100.00
2192;BME280;1102;49.718;11.902;2023-02-20T02:55:35;96976.53;;;4.45;100.00
2192;BME280;1102;49.718;11.902;2023-02-20T02:58:03;97016.00;;;4.59;100.00
2192;BME280;1102;49.718;11.902;2023-02-20T03:00:56;97027.47;;;4.68;100.00
2192;BME280;1102;49.718;11.902;2023-02-20T03:03:32;97010.13;;;4.28;100.00
2192;BME280;1102;49.718;11.902;2023-02-20T03:06:08;96993.06;;;4.35;100.00
2192;BME280;1102;49.718;11.902;2023-02-20T03:09:11;96986.03;;;4.26;100.00
2192;BME280;1102;49.718;11.902;2023-02-20T03:11:41;96990.72;;;4.34;100.00
2192;BME280;1102;49.718;11.902;2023-02-20T03:14:19;96978.66;;;4.38;100.00
2192;BME280;1102;49.718;11.902;2023-02-20T03:19:43;96993.84;;;4.41;100.00
2192;BME280;1102;49.718;11.902;2023-02-20T03:24:43;96985.47;;;4.39;100.00
2192;BME280;1102;49.718;11.902;2023-02-20T03:27:40;97004.78;;;4.48;100.00
2192;BME280;1102;49.718;11.902;2023-02-20T03:32:52;97011.13;;;4.42;100.00
2192;BME280;1102;49.718;11.902;2023-02-20T03:35:39;97025.69;;;4.53;100.00
2192;BME280;1102;49.718;11.902;2023-02-20T03:38:30;96978.72;;;4.23;100.00
2192;BME280;1102;49.718;11.902;2023-02-20T03:41:20;96999.41;;;4.29;100.00
2192;BME280;1102;49.718;11.902;2023-02-20T03:44:07;96998.63;;;4.29;100.00
2192;BME280;1102;49.718;11.902;2023-02-20T03:46:37;96951.66;;;3.93;100.00
2192;BME280;1102;49.718;11.902;2023-02-20T03:49:11;96999.16;;;4.21;100.00
2192;BME280;1102;49.718;11.902;2023-02-20T03:51:57;96991.34;;;4.10;100.00
2192;BME280;1102;49.718;11.902;2023-02-20T03:54:37;96995.78;;;4.15;100.00
2192;BME280;1102;49.718;11.902;2023-02-20T03:59:46;97024.94;;;4.48;100.00
2192;BME280;1102;49.718;11.902;2023-02-20T04:02:21;97017.38;;;4.46;100.00
2192;BME280;1102;49.718;11.902;2023-02-20T04:04:52;97023.16;;;4.43;100.00
2192;BME280;1102;49.718;11.902;2023-02-20T04:07:27;96992.84;;;4.32;100.00
2192;BME280;1102;49.718;11.902;2023-02-20T04:09:58;97024.69;;;4.49;100.00
2192;BME280;1102;49.718;11.902;2023-02-20T04:12:29;97028.66;;;4.41;100.00
2192;BME280;1102;49.718;11.902;2023-02-20T04:14:59;96954.19;;;4.08;100.00
2192;BME280;1102;49.718;11.902;2023-02-20T04:17:34;97035.34;;;4.63;100.00
2192;BME280;1102;49.718;11.902;2023-02-20T04:20:04;97001.44;;;4.42;100.00
2192;BME280;1102;49.718;11.902;2023-02-20T04:22:37;97003.50;;;4.40;100.00
2192;BME280;1102;49.718;11.902;2023-02-20T04:25:12;96978.78;;;4.12;100.00
2192;BME280;1102;49.718;11.902;2023-02-20T04:27:41;97012.75;;;4.28;100.00
2192;BME280;1102;49.718;11.902;2023-02-20T04:30:08;96990.22;;;4.27;100.00
2192;BME280;1102;49.718;11.902;2023-02-20T04:32:36;96995.00;;;4.14;100.00
2192;BME280;1102;49.718;11.902;2023-02-20T04:35:02;97030.53;;;4.31;100.00
2192;BME280;1102;49.718;11.902;2023-02-20T04:37:29;96985.91;;;4.02;100.00
2192;BME280;1102;49.718;11.902;2023-02-20T04:39:57;96991.34;;;4.10;100.00
2192;BME280;1102;49.718;11.902;2023-02-20T04:42:24;97011.72;;;4.19;100.00
2192;BME280;1102;49.718;11.902;2023-02-20T04:44:51;97007.25;;;4.24;100.00
2192;BME280;1102;49.718;11.902;2023-02-20T04:47:18;97002.53;;;4.31;100.00
2192;BME280;1102;49.718;11.902;2023-02-20T04:49:44;97048.16;;;4.64;100.00
2192;BME280;1102;49.718;11.902;2023-02-20T04:52:16;96996.47;;;4.36;100.00
2192;BME280;1102;49.718;11.902;2023-02-20T04:54:43;97014.22;;;4.49;100.00
2192;BME280;1102;49.718;11.902;2023-02-20T04:57:11;96986.31;;;4.29;100.00
2192;BME280;1102;49.718;11.902;2023-02-20T04:59:39;96947.16;;;3.99;100.00
2192;BME280;1102;49.718;11.902;2023-02-20T05:02:05;97027.31;;;4.49;100.00
2192;BME280;1102;49.718;11.902;2023-02-20T05:04:35;97036.16;;;4.58;100.00
2192;BME280;1102;49.718;11.902;2023-02-20T05:07:02;96973.03;;;4.10;100.00
2192;BME280;1102;49.718;11.902;2023-02-20T05:09:28;97020.03;;;4.36;100.00
2192;BME280;1102;49.718;11.902;2023-02-20T05:11:55;97062.81;;;4.70;100.00
2192;BME280;1102;49.718;11.902;2023-02-20T05:14:22;97026.00;;;4.47;100.00
2192;BME280;1102;49.718;11.902;2023-02-20T05:16:48;97023.16;;;4.38;100.00
2192;BME280;1102;49.718;11.902;2023-02-20T05:19:16;97044.53;;;4.60;100.00
2192;BME280;1102;49.718;11.902;2023-02-20T05:21:44;97060.72;;;4.72;100.00
2192;BME280;1102;49.718;11.902;2023-02-20T05:24:30;97033.00;;;4.61;100.00
2192;BME280;1102;49.718;11.902;2023-02-20T05:26:57;97044.78;;;4.64;100.00
2192;BME280;1102;49.718;11.902;2023-02-20T05:29:24;97027.28;;;4.54;100.00
2192;BME280;1102;49.718;11.902;2023-02-20T05:31:51;97036.97;;;4.54;100.00
2192;BME280;1102;49.718;11.902;2023-02-20T05:34:18;97029.38;;;4.52;100.00
2192;BME280;1102;49.718;11.902;2023-02-20T05:36:47;97040.81;;;4.66;100.00
2192;BME280;1102;49.718;11.902;2023-02-20T05:39:13;97043.72;;;4.70;100.00
2192;BME280;1102;49.718;11.902;2023-02-20T05:41:40;97042.66;;;4.66;100.00
2192;BME280;1102;49.718;11.902;2023-02-20T05:44:07;97028.59;;;4.52;100.00
2192;BME280;1102;49.718;11.902;2023-02-20T05:46:38;97046.88;;;4.62;100.00
2192;BME280;1102;49.718;11.902;2023-02-20T05:49:06;97056.50;;;4.77;100.00
2192;BME280;1102;49.718;11.902;2023-02-20T05:51:33;97053.91;;;4.66;100.00
2192;BME280;1102;49.718;11.902;2023-02-20T05:54:00;97026.28;;;4.40;100.00
2192;BME280;1102;49.718;11.902;2023-02-20T05:56:26;97005.38;;;4.35;100.00
2192;BME280;1102;49.718;11.902;2023-02-20T05:58:55;96917.75;;;3.58;100.00
2192;BME280;1102;49.718;11.902;2023-02-20T06:01:24;97073.84;;;4.67;100.00
2192;BME280;1102;49.718;11.902;2023-02-20T06:03:52;97086.66;;;4.69;100.00
2192;BME280;1102;49.718;11.902;2023-02-20T06:06:19;97060.03;;;4.47;100.00
2192;BME280;1102;49.718;11.902;2023-02-20T06:08:47;97063.22;;;4.38;100.00
2192;BME280;1102;49.718;11.902;2023-02-20T06:11:15;97097.94;;;4.69;100.00
2192;BME280;1102;49.718;11.902;2023-02-20T06:13:43;97050.38;;;4.37;100.00
2192;BME280;1102;49.718;11.902;2023-02-20T06:16:10;97089.56;;;4.67;100.00
2192;BME280;1102;49.718;11.902;2023-02-20T06:18:39;97069.66;;;4.61;100.00
2192;BME280;1102;49.718;11.902;2023-02-20T06:21:08;97084.75;;;4.80;100.00
2192;BME280;1102;49.718;11.902;2023-02-20T06:23:36;97087.66;;;4.83;100.00
2192;BME280;1102;49.718;11.902;2023-02-20T06:26:04;97074.81;;;4.77;100.00
2192;BME280;1102;49.718;11.902;2023-02-20T06:28:31;97081.63;;;4.83;100.00
2192;BME280;1102;49.718;11.902;2023-02-20T06:30:58;97099.16;;;4.87;100.00
2192;BME280;1102;49.718;11.902;2023-02-20T06:33:27;97026.81;;;4.37;100.00
2192;BME280;1102;49.718;11.902;2023-02-20T06:35:54;97075.72;;;4.52;100.00
2192;BME280;1102;49.718;11.902;2023-02-20T06:38:21;97074.91;;;4.61;100.00
2192;BME280;1102;49.718;11.902;2023-02-20T06:40:47;97059.78;;;4.48;100.00
2192;BME280;1102;49.718;11.902;2023-02-20T06:43:14;97066.34;;;4.45;100.00
2192;BME280;1102;49.718;11.902;2023-02-20T06:45:41;97086.34;;;4.75;100.00
2192;BME280;1102;49.718;11.902;2023-02-20T06:48:07;97023.66;;;4.45;100.00
2192;BME280;1102;49.718;11.902;2023-02-20T06:50:34;97077.69;;;4.85;100.00
2192;BME280;1102;49.718;11.902;2023-02-20T06:53:01;97075.84;;;4.81;100.00
2192;BME280;1102;49.718;11.902;2023-02-20T06:55:27;97096.00;;;4.85;100.00
2192;BME280;1102;49.718;11.902;2023-02-20T06:57:54;97031.97;;;4.57;100.00
2192;BME280;1102;49.718;11.902;2023-02-20T07:00:21;97083.19;;;4.84;100.00
2192;BME280;1102;49.718;11.902;2023-02-20T07:02:47;97085.25;;;4.87;100.00
2192;BME280;1102;49.718;11.902;2023-02-20T07:05:14;97070.91;;;4.74;100.00
2192;BME280;1102;49.718;11.902;2023-02-20T07:07:40;97084.78;;;4.74;100.00
2192;BME280;1102;49.718;11.902;2023-02-20T07:10:07;97067.56;;;4.63;100.00
2192;BME280;1102;49.718;11.902;2023-02-20T07:12:34;97107.56;;;4.84;100.00
2192;BME280;1102;49.718;11.902;2023-02-20T07:15:06;97106.69;;;4.94;100.00
2192;BME280;1102;49.718;11.902;2023-02-20T07:17:33;97084.78;;;4.74;100.00
2192;BME280;1102;49.718;11.902;2023-02-20T07:20:00;97062.31;;;4.63;100.00
2192;BME280;1102;49.718;11.902;2023-02-20T07:22:26;97073.50;;;4.79;100.00
2192;BME280;1102;49.718;11.902;2023-02-20T07:24:53;97088.34;;;4.94;100.00
2192;BME280;1102;49.718;11.902;2023-02-20T07:27:21;97100.94;;;4.92;100.00
2192;BME280;1102;49.718;11.902;2023-02-20T07:29:49;97094.66;;;4.93;100.00
2192;BME280;1102;49.718;11.902;2023-02-20T07:32:16;97098.06;;;4.93;100.00
2192;BME280;1102;49.718;11.902;2023-02-20T07:34:46;97098.09;;;4.88;100.00
2192;BME280;1102;49.718;11.902;2023-02-20T07:37:30;97098.06;;;4.93;100.00
2192;BME280;1102;49.718;11.902;2023-02-20T07:39:56;97102.50;;;4.93;100.00
2192;BME280;1102;49.718;11.902;2023-02-20T07:42:23;97084.72;;;4.90;100.00
2192;BME280;1102;49.718;11.902;2023-02-20T07:44:58;97069.81;;;4.80;100.00
2192;BME280;1102;49.718;11.902;2023-02-20T07:47:24;97071.16;;;4.78;100.00
2192;BME280;1102;49.718;11.902;2023-02-20T07:49:51;97067.78;;;4.67;100.00
2192;BME280;1102;49.718;11.902;2023-02-20T07:52:18;97078.50;;;4.75;100.00
2192;BME280;1102;49.718;11.902;2023-02-20T07:54:44;97094.66;;;4.93;100.00
2192;BME280;1102;49.718;11.902;2023-02-20T07:57:11;97041.59;;;4.67;100.00
2192;BME280;1102;49.718;11.902;2023-02-20T07:59:37;97105.06;;;5.08;100.00
2192;BME280;1102;49.718;11.902;2023-02-20T08:02:04;97100.56;;;5.14;100.00
2192;BME280;1102;49.718;11.902;2023-02-20T08:04:31;97105.50;;;5.20;100.00
2192;BME280;1102;49.718;11.902;2023-02-20T08:06:57;97041.50;;;4.87;100.00
2192;BME280;1102;49.718;11.902;2023-02-20T08:09:24;97097.88;;;5.24;100.00
2192;BME280;1102;49.718;11.902;2023-02-20T08:11:51;97106.16;;;5.41;100.00
2192;BME280;1102;49.718;11.902;2023-02-20T08:14:17;97078.16;;;5.31;100.00
2192;BME280;1102;49.718;11.902;2023-02-20T08:16:44;97044.41;;;5.20;100.00
2192;BME280;1102;49.718;11.902;2023-02-20T08:19:11;97016.88;;;4.88;100.00
2192;BME280;1102;49.718;11.902;2023-02-20T08:21:37;97083.38;;;5.37;100.00
2192;BME280;1102;49.718;11.902;2023-02-20T08:24:04;97108.38;;;5.63;100.00
2192;BME280;1102;49.718;11.902;2023-02-20T08:26:32;97055.41;;;5.27;100.00
2192;BME280;1102;49.718;11.902;2023-02-20T08:29:01;97038.22;;;5.05;100.00
2192;BME280;1102;49.718;11.902;2023-02-20T08:31:28;97060.97;;;5.15;100.00
2192;BME280;1102;49.718;11.902;2023-02-20T08:33:58;97057.63;;;5.10;100.00
2192;BME280;1102;49.718;11.902;2023-02-20T08:36:25;97066.22;;;5.15;100.00
2192;BME280;1102;49.718;11.902;2023-02-20T08:38:52;97066.66;;;5.27;100.00
2192;BME280;1102;49.718;11.902;2023-02-20T08:41:20;97081.84;;;5.64;100.00
2192;BME280;1102;49.718;11.902;2023-02-20T08:43:47;97060.72;;;5.51;100.00
2192;BME280;1102;49.718;11.902;2023-02-20T08:46:13;96993.75;;;5.29;100.00
2192;BME280;1102;49.718;11.902;2023-02-20T08:48:41;97024.94;;;5.31;100.00
2192;BME280;1102;49.718;11.902;2023-02-20T08:51:08;97070.31;;;5.60;100.00
2192;BME280;1102;49.718;11.902;2023-02-20T08:53:37;97049.75;;;5.44;100.00
2192;BME280;1102;49.718;11.902;2023-02-20T08:56:05;97037.25;;;5.36;100.00
2192;BME280;1102;49.718;11.902;2023-02-20T08:58:32;96986.06;;;5.09;100.00
2192;BME280;1102;49.718;11.902;2023-02-20T09:00:58;97013.91;;;5.34;100.00
2192;BME280;1102;49.718;11.902;2023-02-20T09:03:25;97049.34;;;5.60;100.00
2192;BME280;1102;49.718;11.902;2023-02-20T09:05:52;97027.13;;;5.53;100.00
2192;BME280;1102;49.718;11.902;2023-02-20T09:08:19;97006.66;;;5.55;100.00
2192;BME280;1102;49.718;11.902;2023-02-20T09:10:46;97050.66;;;5.87;100.00
2192;BME280;1102;49.718;11.902;2023-02-20T09:13:13;97007.38;;;5.60;100.00
2192;BME280;1102;49.718;11.902;2023-02-20T09:15:40;97014.50;;;5.55;100.00
2192;BME280;1102;49.718;11.902;2023-02-20T09:18:10;97040.28;;;5.77;100.00
2192;BME280;1102;49.718;11.902;2023-02-20T09:20:38;97021.31;;;5.85;100.00
2192;BME280;1102;49.718;11.902;2023-02-20T09:23:05;97030.44;;;5.92;100.00
2192;BME280;1102;49.718;11.902;2023-02-20T09:25:32;97007.41;;;5.84;100.00
2192;BME280;1102;49.718;11.902;2023-02-20T09:27:58;97028.00;;;6.01;100.00
2192;BME280;1102;49.718;11.902;2023-02-20T09:30:25;97041.78;;;6.12;100.00
2192;BME280;1102;49.718;11.902;2023-02-20T09:32:52;97021.28;;;6.14;100.00
2192;BME280;1102;49.718;11.902;2023-02-20T09:35:23;97024.03;;;6.04;100.00
2192;BME280;1102;49.718;11.902;2023-02-20T09:37:50;96989.25;;;5.93;100.00
2192;BME280;1102;49.718;11.902;2023-02-20T09:40:20;97012.97;;;6.31;100.00
2192;BME280;1102;49.718;11.902;2023-02-20T09:43:09;97015.22;;;6.37;100.00
2192;BME280;1102;49.718;11.902;2023-02-20T09:45:46;96971.50;;;6.28;100.00
2192;BME280;1102;49.718;11.902;2023-02-20T09:48:30;97008.00;;;6.29;100.00
2192;BME280;1102;49.718;11.902;2023-02-20T09:51:04;96975.97;;;6.27;100.00
2192;BME280;1102;49.718;11.902;2023-02-20T09:53:37;96986.31;;;6.61;100.00
2192;BME280;1102;49.718;11.902;2023-02-20T09:56:12;96998.44;;;6.76;100.00
2192;BME280;1102;49.718;11.902;2023-02-20T10:01:56;96977.78;;;6.69;100.00
2192;BME280;1102;49.718;11.902;2023-02-20T10:04:37;96952.84;;;6.67;100.00
2192;BME280;1102;49.718;11.902;2023-02-20T10:07:24;96970.31;;;6.76;100.00
2192;BME280;1102;49.718;11.902;2023-02-20T10:09:52;96980.88;;;6.90;100.00
2192;BME280;1102;49.718;11.902;2023-02-20T10:12:32;96983.28;;;7.05;100.00
2192;BME280;1102;49.718;11.902;2023-02-20T10:15:10;96950.25;;;6.99;100.00
2192;BME280;1102;49.718;11.902;2023-02-20T10:23:18;96996.22;;;7.81;100.00
2192;BME280;1102;49.718;11.902;2023-02-20T10:25:53;96988.44;;;7.89;100.00
2192;BME280;1102;49.718;11.902;2023-02-20T10:28:22;96956.94;;;7.84;100.00
2192;BME280;1102;49.718;11.902;2023-02-20T10:33:30;96978.09;;;8.20;100.00
2192;BME280;1102;49.718;11.902;2023-02-20T10:36:41;96993.41;;;8.05;100.00
2192;BME280;1102;49.718;11.902;2023-02-20T10:38:59;96961.41;;;7.84;100.00
2192;BME280;1102;49.718;11.902;2023-02-20T10:41:32;96956.34;;;7.87;100.00
2192;BME280;1102;49.718;11.902;2023-02-20T10:51:58;96955.97;;;7.80;100.00
2192;BME280;1102;49.718;11.902;2023-02-20T10:57:20;96897.66;;;7.59;100.00
2192;BME280;1102;49.718;11.902;2023-02-20T11:02:33;96956.06;;;8.16;100.00
2192;BME280;1102;49.718;11.902;2023-02-20T11:05:10;96924.44;;;8.16;100.00
2192;BME280;1102;49.718;11.902;2023-02-20T11:10:25;96934.66;;;8.32;100.00
2192;BME280;1102;49.718;11.902;2023-02-20T11:12:55;96929.38;;;8.32;100.00
2192;BME280;1102;49.718;11.902;2023-02-20T11:15:28;96919.63;;;8.32;100.00
2192;BME280;1102;49.718;11.902;2023-02-20T11:17:56;96895.91;;;8.32;100.00
2192;BME280;1102;49.718;11.902;2023-02-20T11:22:58;96900.06;;;8.61;100.00
2192;BME280;1102;49.718;11.902;2023-02-20T11:25:27;96907.84;;;8.88;100.00
2192;BME280;1102;49.718;11.902;2023-02-20T11:27:57;96898.13;;;8.97;100.00
2192;BME280;1102;49.718;11.902;2023-02-20T11:30:28;96904.38;;;9.01;100.00
2192;BME280;1102;49.718;11.902;2023-02-20T11:33:36;96891.00;;;8.98;100.00
2192;BME280;1102;49.718;11.902;2023-02-20T11:36:16;96895.31;;;8.94;100.00
2192;BME280;1102;49.718;11.902;2023-02-20T11:38:46;96880.25;;;8.94;100.00
2192;BME280;1102;49.718;11.902;2023-02-20T11:41:21;96897.44;;;9.14;100.00
2192;BME280;1102;49.718;11.902;2023-02-20T11:46:40;96860.16;;;9.07;100.00
2192;BME280;1102;49.718;11.902;2023-02-20T11:49:10;96877.88;;;9.37;100.00
2192;BME280;1102;49.718;11.902;2023-02-20T11:51:45;96891.66;;;9.34;100.00
2192;BME280;1102;49.718;11.902;2023-02-20T11:54:24;96862.50;;;9.39;100.00
2192;BME280;1102;49.718;11.902;2023-02-20T12:01:53;96860.94;;;9.38;100.00
2192;BME280;1102;49.718;11.902;2023-02-20T12:04:26;96857.22;;;9.48;100.00
2192;BME280;1102;49.718;11.902;2023-02-20T12:06:53;96846.50;;;9.44;100.00
2192;BME280;1102;49.718;11.902;2023-02-20T12:09:24;96829.56;;;8.97;100.00
2192;BME280;1102;49.718;11.902;2023-02-20T12:11:54;96862.38;;;9.13;100.00
2192;BME280;1102;49.718;11.902;2023-02-20T12:14:24;96809.19;;;8.58;100.00
2192;BME280;1102;49.718;11.902;2023-02-20T12:16:58;96856.28;;;9.04;100.00
2192;BME280;1102;49.718;11.902;2023-02-20T12:19:41;96849.38;;;8.95;100.00
2192;BME280;1102;49.718;11.902;2023-02-20T12:22:19;96845.41;;;8.97;100.00
2192;BME280;1102;49.718;11.902;2023-02-20T12:24:58;96823.50;;;8.97;100.00
2192;BME280;1102;49.718;11.902;2023-02-20T12:27:46;96835.34;;;8.77;100.00
2192;BME280;1102;49.718;11.902;2023-02-20T12:35:35;96814.22;;;9.39;100.00
2192;BME280;1102;49.718;11.902;2023-02-20T12:38:30;96833.19;;;9.50;100.00
2192;BME280;1102;49.718;11.902;2023-02-20T12:41:23;96831.34;;;9.59;100.00
2192;BME280;1102;49.718;11.902;2023-02-20T12:49:52;96822.81;;;9.62;100.00
2192;BME280;1102;49.718;11.902;2023-02-20T12:52:56;96819.50;;;9.47;100.00
2192;BME280;1102;49.718;11.902;2023-02-20T13:01:16;96810.78;;;10.21;100.00
2192;BME280;1102;49.718;11.902;2023-02-20T13:06:38;96791.63;;;10.50;100.00
2192;BME280;1102;49.718;11.902;2023-02-20T13:09:17;96738.25;;;10.65;100.00
2192;BME280;1102;49.718;11.902;2023-02-20T13:11:49;96776.91;;;10.96;100.00
2192;BME280;1102;49.718;11.902;2023-02-20T13:14:59;96793.78;;;10.74;100.00
2192;BME280;1102;49.718;11.902;2023-02-20T13:17:25;96792.34;;;10.85;100.00
2192;BME280;1102;49.718;11.902;2023-02-20T13:20:02;96765.16;;;10.68;100.00
2192;BME280;1102;49.718;11.902;2023-02-20T13:22:32;96787.00;;;10.94;100.00
2192;BME280;1102;49.718;11.902;2023-02-20T13:33:40;96758.75;;;11.45;100.00
2192;BME280;1102;49.718;11.902;2023-02-20T13:36:15;96761.19;;;11.29;100.00
2192;BME280;1102;49.718;11.902;2023-02-20T13:49:54;96765.66;;;12.75;100.00
2192;BME280;1102;49.718;11.902;2023-02-20T13:52:41;96787.06;;;13.02;100.00
2192;BME280;1102;49.718;11.902;2023-02-20T14:00:24;96753.31;;;13.76;100.00
2192;BME280;1102;49.718;11.902;2023-02-20T14:02:52;96730.13;;;12.42;100.00
2192;BME280;1102;49.718;11.902;2023-02-20T14:05:30;96761.66;;;12.56;100.00
2192;BME280;1102;49.718;11.902;2023-02-20T14:07:58;96739.97;;;13.24;100.00
2192;BME280;1102;49.718;11.902;2023-02-20T14:10:33;96723.59;;;13.10;100.00
2192;BME280;1102;49.718;11.902;2023-02-20T14:13:05;96751.38;;;13.49;100.00
2192;BME280;1102;49.718;11.902;2023-02-20T14:16:03;96730.38;;;13.72;99.09
2192;BME280;1102;49.718;11.902;2023-02-20T14:18:33;96702.88;;;13.52;96.87
2192;BME280;1102;49.718;11.902;2023-02-20T14:21:08;96733.03;;;13.72;95.32
2192;BME280;1102;49.718;11.902;2023-02-20T14:23:35;96712.25;;;13.61;94.92
2192;BME280;1102;49.718;11.902;2023-02-20T14:26:04;96684.22;;;13.76;94.11
2192;BME280;1102;49.718;11.902;2023-02-20T14:28:33;96707.91;;;13.69;91.79
2192;BME280;1102;49.718;11.902;2023-02-20T14:33:33;96699.00;;;13.49;92.11
2192;BME280;1102;49.718;11.902;2023-02-20T14:38:49;96656.16;;;13.51;90.55
2192;BME280;1102;49.718;11.902;2023-02-20T14:41:21;96702.09;;;13.51;91.02
2192;BME280;1102;49.718;11.902;2023-02-20T14:44:03;96698.13;;;13.33;92.18
2192;BME280;1102;49.718;11.902;2023-02-20T14:46:32;96692.53;;;13.22;92.78
2192;BME280;1102;49.718;11.902;2023-02-20T14:49:05;96688.28;;;13.21;92.38
2192;BME280;1102;49.718;11.902;2023-02-20T14:51:34;96644.72;;;12.73;92.66
2192;BME280;1102;49.718;11.902;2023-02-20T14:56:40;96677.88;;;13.41;92.58
2192;BME280;1102;49.718;11.902;2023-02-20T15:05:02;96672.13;;;12.90;91.95
2192;BME280;1102;49.718;11.902;2023-02-20T15:07:29;96671.66;;;13.49;92.42
2192;BME280;1102;49.718;11.902;2023-02-20T15:09:59;96680.91;;;13.67;90.49
2192;BME280;1102;49.718;11.902;2023-02-20T15:12:34;96689.19;;;14.06;90.14
2192;BME280;1102;49.718;11.902;2023-02-20T15:15:13;96659.75;;;13.71;89.45
2192;BME280;1102;49.718;11.902;2023-02-20T15:17:41;96650.44;;;13.77;88.24
2192;BME280;1102;49.718;11.902;2023-02-20T15:20:32;96662.09;;;13.60;87.30
2192;BME280;1102;49.718;11.902;2023-02-20T15:23:27;96680.97;;;13.83;88.67
2192;BME280;1102;49.718;11.902;2023-02-20T15:25:54;96689.28;;;14.09;86.68
2192;BME280;1102;49.718;11.902;2023-02-20T15:33:45;96668.50;;;12.58;89.48
2192;BME280;1102;49.718;11.902;2023-02-20T15:36:14;96678.47;;;12.28;90.61
2192;BME280;1102;49.718;11.902;2023-02-20T15:38:43;96661.88;;;11.86;92.06
2192;BME280;1102;49.718;11.902;2023-02-20T15:41:10;96629.97;;;11.61;92.60
2192;BME280;1102;49.718;11.902;2023-02-20T15:43:37;96652.84;;;11.45;94.65
2192;BME280;1102;49.718;11.902;2023-02-20T15:46:15;96666.28;;;11.40;95.68